createdAt,value
2022-10-11T00:01:35.931Z,8.63
2022-10-11T00:06:39.112Z,8.55
2022-10-11T00:11:43.351Z,8.57
2022-10-11T00:16:46.254Z,8.63
2022-10-11T00:21:49.153Z,8.70
2022-10-11T00:26:52.085Z,8.78
2022-10-11T00:31:55.095Z,8.84
2022-10-11T00:36:58.042Z,8.90
2022-10-11T00:42:01.075Z,8.92
2022-10-11T00:47:10.608Z,8.89
2022-10-11T00:52:40.657Z,8.82
2022-10-11T00:57:48.664Z,8.75
2022-10-11T01:02:51.802Z,8.79
2022-10-11T01:07:54.793Z,8.89
2022-10-11T01:13:39.212Z,8.96
2022-10-11T01:18:50.242Z,8.94
2022-10-11T01:24:28.381Z,8.85
2022-10-11T01:30:17.969Z,8.82
2022-10-11T01:35:38.337Z,8.79
2022-10-11T01:40:53.257Z,8.76
2022-10-11T01:45:59.234Z,8.74
2022-10-11T01:51:04.091Z,8.77
2022-10-11T01:56:47.577Z,8.84
2022-10-11T02:02:41.835Z,8.90
2022-10-11T02:07:56.964Z,8.82
2022-10-11T02:13:22.709Z,8.78
2022-10-11T02:18:33.333Z,8.75
2022-10-11T02:23:44.206Z,8.71
2022-10-11T02:28:50.476Z,8.66
2022-10-11T02:34:28.412Z,8.61
2022-10-11T02:39:56.064Z,8.62
2022-10-11T02:45:08.111Z,8.68
2022-10-11T02:50:13.612Z,8.74
2022-10-11T02:55:16.654Z,8.75
2022-10-11T03:00:19.774Z,8.76
2022-10-11T03:05:22.794Z,8.76
2022-10-11T03:10:25.745Z,8.73
2022-10-11T03:15:29.856Z,8.70
2022-10-11T03:20:32.797Z,8.70
2022-10-11T03:25:35.746Z,8.76
2022-10-11T03:30:38.680Z,8.81
2022-10-11T03:35:45.034Z,8.84
2022-10-11T03:40:51.276Z,8.88
2022-10-11T03:45:57.056Z,8.93
2022-10-11T03:51:00.882Z,8.98
2022-10-11T03:56:08.261Z,9.07
2022-10-11T04:01:11.668Z,9.20
2022-10-11T04:06:14.634Z,9.35
2022-10-11T04:11:17.628Z,9.45
2022-10-11T04:16:20.549Z,9.50
2022-10-11T04:21:23.462Z,9.54
2022-10-11T04:26:26.829Z,9.56
2022-10-11T04:31:29.727Z,9.58
2022-10-11T04:36:34.132Z,9.64
2022-10-11T04:41:37.073Z,9.78
2022-10-11T04:46:40.086Z,9.94
2022-10-11T04:51:43.443Z,10.05
2022-10-11T04:56:46.329Z,10.13
2022-10-11T05:01:49.316Z,10.18
2022-10-11T05:06:52.436Z,10.22
2022-10-11T05:11:55.340Z,10.25
2022-10-11T05:16:58.268Z,10.33
2022-10-11T05:22:01.161Z,10.46
2022-10-11T05:27:04.145Z,10.61
2022-10-11T05:32:07.083Z,10.75
2022-10-11T05:37:10.038Z,10.83
2022-10-11T05:42:13.494Z,10.87
2022-10-11T05:47:16.363Z,10.89
2022-10-11T05:52:21.674Z,10.95
2022-10-11T05:57:24.636Z,11.07
2022-10-11T06:02:27.605Z,11.19
2022-10-11T06:07:30.828Z,11.27
2022-10-11T06:12:33.900Z,11.33
2022-10-11T06:17:37.332Z,11.34
2022-10-11T06:22:40.557Z,11.34
2022-10-11T06:27:43.504Z,11.37
2022-10-11T06:32:46.415Z,11.48
2022-10-11T06:37:49.325Z,11.62
2022-10-11T06:42:52.476Z,11.73
2022-10-11T06:47:55.495Z,11.79
2022-10-11T06:52:59.467Z,11.84
2022-10-11T06:58:02.409Z,11.88
2022-10-11T07:03:05.448Z,11.95
2022-10-11T07:08:08.367Z,12.06
2022-10-11T07:13:16.262Z,12.18
2022-10-11T07:18:20.241Z,12.25
2022-10-11T07:23:24.388Z,12.30
2022-10-11T07:28:28.989Z,12.32
2022-10-11T07:33:32.701Z,12.37
2022-10-11T07:38:38.598Z,12.46
2022-10-11T07:43:43.672Z,12.60
2022-10-11T07:48:50.229Z,12.68
2022-10-11T07:53:56.226Z,12.72
2022-10-11T07:59:05.555Z,12.69
2022-10-11T08:04:08.530Z,12.70
2022-10-11T08:09:12.325Z,12.76
2022-10-11T08:14:15.230Z,12.89
2022-10-11T08:19:18.957Z,12.99
2022-10-11T08:24:21.890Z,13.05
2022-10-11T08:29:25.140Z,13.05
2022-10-11T08:34:28.107Z,13.09
2022-10-11T08:39:31.426Z,13.18
2022-10-11T08:45:22.949Z,13.29
2022-10-11T08:50:23.625Z,13.36
2022-10-11T08:55:48.537Z,13.42
2022-10-11T09:00:56.748Z,13.48
2022-10-11T09:06:05.687Z,13.56
2022-10-11T09:11:45.326Z,13.60
2022-10-11T09:16:57.307Z,13.65
2022-10-11T09:22:30.777Z,13.77
2022-10-11T09:28:04.108Z,13.88
2022-10-11T09:33:32.472Z,13.94
2022-10-11T09:38:52.333Z,13.96
2022-10-11T09:43:55.364Z,14.02
2022-10-11T09:49:00.249Z,13.94
2022-10-11T09:54:06.597Z,13.86
2022-10-11T09:59:35.295Z,13.66
2022-10-11T10:04:57.446Z,13.55
2022-10-11T10:10:26.017Z,13.56
2022-10-11T10:15:32.511Z,13.57
2022-10-11T10:20:36.803Z,13.57
2022-10-11T10:25:43.480Z,13.63
2022-10-11T10:30:57.072Z,13.74
2022-10-11T10:36:39.443Z,13.82
2022-10-11T10:41:42.487Z,13.75
2022-10-11T10:47:16.827Z,13.59
2022-10-11T10:52:56.693Z,13.46
2022-10-11T10:58:23.298Z,13.33
2022-10-11T11:03:55.998Z,13.33
2022-10-11T11:09:28.109Z,13.39
2022-10-11T11:14:31.001Z,13.50
2022-10-11T11:20:14.337Z,13.55
2022-10-11T11:25:31.095Z,13.62
2022-10-11T11:31:09.012Z,13.68
2022-10-11T11:36:28.051Z,13.65
2022-10-11T11:41:44.548Z,13.76
2022-10-11T11:47:20.822Z,13.99
2022-10-11T11:52:33.967Z,14.13
2022-10-11T11:58:07.163Z,14.07
2022-10-11T12:03:17.305Z,13.93
2022-10-11T12:08:32.064Z,13.82
2022-10-11T12:13:40.952Z,13.71
2022-10-11T12:18:59.184Z,13.68
2022-10-11T12:24:12.070Z,13.66
2022-10-11T12:29:25.933Z,13.71
2022-10-11T12:34:35.306Z,13.80
2022-10-11T12:39:55.263Z,13.92
2022-10-11T12:45:13.375Z,14.08
2022-10-11T12:50:31.172Z,14.22
2022-10-11T12:56:24.154Z,14.28
2022-10-11T13:01:35.100Z,14.35
2022-10-11T13:06:54.927Z,14.38
2022-10-11T13:12:18.391Z,14.28
2022-10-11T13:17:32.311Z,14.17
2022-10-11T13:22:40.575Z,14.11
2022-10-11T13:27:44.130Z,14.12
2022-10-11T13:32:47.251Z,14.15
2022-10-11T13:37:50.471Z,14.19
2022-10-11T13:42:55.421Z,14.16
2022-10-11T13:47:58.480Z,14.09
2022-10-11T13:53:23.911Z,14.07
2022-10-11T13:58:47.778Z,14.05
2022-10-11T14:04:01.921Z,13.99
2022-10-11T14:09:05.198Z,13.94
2022-10-11T14:14:40.678Z,13.88
2022-10-11T14:19:46.833Z,13.82
2022-10-11T14:24:49.811Z,13.76
2022-10-11T14:30:19.951Z,13.66
2022-10-11T14:35:18.281Z,13.60
2022-10-11T14:40:29.614Z,13.56
2022-10-11T14:45:32.578Z,13.49
2022-10-11T14:50:47.866Z,13.43
2022-10-11T14:55:51.245Z,13.36
2022-10-11T15:00:54.134Z,13.31
2022-10-11T15:05:57.278Z,13.29
2022-10-11T15:11:00.248Z,13.27
2022-10-11T15:16:03.591Z,13.22
2022-10-11T15:21:07.568Z,13.14
2022-10-11T15:26:18.684Z,13.05
2022-10-11T15:31:22.131Z,12.98
2022-10-11T15:36:25.557Z,12.92
2022-10-11T15:41:28.632Z,12.85
2022-10-11T15:46:31.575Z,12.77
2022-10-11T15:51:34.511Z,12.70
2022-10-11T15:56:37.415Z,12.61
2022-10-11T16:01:40.815Z,12.54
2022-10-11T16:06:43.837Z,12.49
2022-10-11T16:11:46.797Z,12.44
2022-10-11T16:16:49.862Z,12.36
2022-10-11T16:21:52.793Z,12.30
2022-10-11T16:26:55.747Z,12.25
2022-10-11T16:31:58.633Z,12.22
2022-10-11T16:37:02.072Z,12.13
2022-10-11T16:42:07.545Z,12.01
2022-10-11T16:47:10.641Z,11.92
2022-10-11T16:52:14.374Z,11.84
2022-10-11T16:57:20.007Z,11.74
2022-10-11T17:02:32.126Z,11.64
2022-10-11T17:07:35.711Z,11.55
2022-10-11T17:12:38.969Z,11.44
2022-10-11T17:17:41.915Z,11.33
2022-10-11T17:22:44.982Z,11.23
2022-10-11T17:27:48.069Z,11.18
2022-10-11T17:32:52.359Z,11.17
2022-10-11T17:37:55.267Z,11.17
2022-10-11T17:42:58.333Z,11.14
2022-10-11T17:48:04.200Z,11.08
2022-10-11T17:53:07.130Z,11.01
2022-10-11T17:58:11.314Z,10.93
2022-10-11T18:03:14.250Z,10.85
2022-10-11T18:08:20.450Z,10.76
2022-10-11T18:13:23.460Z,10.70
2022-10-11T18:18:27.468Z,10.67
2022-10-11T18:23:31.186Z,10.63
2022-10-11T18:28:34.002Z,10.57
2022-10-11T18:33:38.080Z,10.50
2022-10-11T18:38:46.557Z,10.49
2022-10-11T18:43:53.980Z,10.46
2022-10-11T18:48:58.763Z,10.45
2022-10-11T18:54:02.865Z,10.42
2022-10-11T18:59:07.927Z,10.37
2022-10-11T19:04:15.898Z,10.31
2022-10-11T19:09:26.187Z,10.25
2022-10-11T19:14:30.385Z,10.14
2022-10-11T19:19:34.119Z,10.04
2022-10-11T19:24:37.107Z,9.96
2022-10-11T19:29:40.051Z,9.94
2022-10-11T19:34:42.971Z,9.98
2022-10-11T19:39:45.906Z,9.99
2022-10-11T19:44:48.810Z,10.00
2022-10-11T19:49:51.759Z,9.94
2022-10-11T19:54:54.674Z,9.86
2022-10-11T19:59:57.778Z,9.77
2022-10-11T20:05:00.698Z,9.68
2022-10-11T20:10:04.573Z,9.58
2022-10-11T20:15:07.979Z,9.49
2022-10-11T20:20:11.073Z,9.42
2022-10-11T20:25:14.030Z,9.38
2022-10-11T20:30:17.095Z,9.42
2022-10-11T20:35:20.013Z,9.51
2022-10-11T20:40:22.915Z,9.55
2022-10-11T20:45:25.825Z,9.54
2022-10-11T20:50:28.752Z,9.48
2022-10-11T20:55:32.012Z,9.42
2022-10-11T21:00:34.914Z,9.36
2022-10-11T21:05:37.838Z,9.31
2022-10-11T21:10:41.094Z,9.23
2022-10-11T21:15:44.031Z,9.15
2022-10-11T21:20:47.400Z,9.05
2022-10-11T21:25:50.297Z,8.96
2022-10-11T21:30:53.254Z,8.94
2022-10-11T21:35:56.193Z,8.99
2022-10-11T21:40:59.485Z,9.01
2022-10-11T21:46:22.567Z,8.99
2022-10-11T21:51:32.959Z,8.93
2022-10-11T21:56:36.204Z,8.90
2022-10-11T22:01:39.622Z,8.84
2022-10-11T22:06:42.595Z,8.81
2022-10-11T22:11:45.647Z,8.78
2022-10-11T22:16:48.567Z,8.73
2022-10-11T22:21:51.538Z,8.70
2022-10-11T22:26:54.459Z,8.73
2022-10-11T22:31:57.402Z,8.80
2022-10-11T22:37:00.313Z,8.82
2022-10-11T22:42:03.648Z,8.79
2022-10-11T22:47:06.574Z,8.76
2022-10-11T22:52:09.496Z,8.71
2022-10-11T22:57:12.426Z,8.63
2022-10-11T23:02:15.333Z,8.56
2022-10-11T23:07:18.247Z,8.48
2022-10-11T23:12:21.265Z,8.40
2022-10-11T23:17:24.315Z,8.33
2022-10-11T23:22:27.224Z,8.25
2022-10-11T23:27:30.909Z,8.25
2022-10-11T23:32:35.649Z,8.34
2022-10-11T23:37:39.003Z,8.41
2022-10-11T23:42:42.301Z,8.37
2022-10-11T23:47:45.207Z,8.31
2022-10-11T23:52:48.092Z,8.25
2022-10-11T23:57:51.050Z,8.17
